Time;durP1;ratioP1;P1;durP2;ratioP2;P2;SDS_P1;SDS_P2;PMS_P1;PMS_P2;Temp;Humidity;BMP_temperature;BMP_pressure;BME280_temperature;BME280_humidity;BME280_pressure;Samples;Min_cycle;Max_cycle;Signal;HPM_P1;HPM_P2
2021/08/16 00:00:51;;;;;;;0.10;0.10;;;;;;;20.63;62.24;100995.00;4987165;28;20035;-86
2021/08/16 00:03:26;;;;;;;0.00;0.00;;;;;;;20.81;61.62;100988.53;4986149;28;20054;-89
2021/08/16 00:05:53;;;;;;;0.10;0.10;;;;;;;20.72;61.83;100985.53;4986868;28;20027;-88
2021/08/16 00:08:20;;;;;;;1.50;0.45;;;;;;;20.51;62.40;100986.69;4988294;28;20421;-93
2021/08/16 00:10:48;;;;;;;0.00;0.00;;;;;;;20.71;62.03;100986.44;4988897;28;20038;-88
2021/08/16 00:13:20;;;;;;;0.10;0.10;;;;;;;20.75;61.77;100988.00;4987061;28;20025;-89
2021/08/16 00:15:53;;;;;;;0.47;0.47;;;;;;;20.83;61.55;100986.59;4987164;28;20023;-90
2021/08/16 00:18:21;;;;;;;0.30;0.30;;;;;;;20.65;62.22;100972.41;4988491;28;20117;-89
2021/08/16 00:20:47;;;;;;;0.00;0.00;;;;;;;20.87;61.28;100981.88;4988157;28;20072;-87
2021/08/16 00:23:13;;;;;;;0.00;0.00;;;;;;;20.91;61.41;100979.88;4984822;28;20042;-86
2021/08/16 00:25:40;;;;;;;0.32;0.32;;;;;;;20.83;61.65;100980.34;4985950;28;20157;-90
2021/08/16 00:28:07;;;;;;;0.47;0.47;;;;;;;20.89;61.39;100974.59;4986983;28;20022;-87
2021/08/16 00:30:33;;;;;;;0.38;0.38;;;;;;;20.85;61.42;100978.44;4986998;28;20109;-87
2021/08/16 00:33:00;;;;;;;0.00;0.00;;;;;;;20.84;61.42;100976.69;4978205;28;20064;-88
2021/08/16 00:35:26;;;;;;;0.35;0.35;;;;;;;20.79;61.69;100976.13;4976303;28;20142;-88
2021/08/16 00:37:53;;;;;;;6.70;0.90;;;;;;;20.92;61.21;100982.50;4990862;28;20113;-88
2021/08/16 00:40:19;;;;;;;0.00;0.00;;;;;;;20.82;61.50;100973.22;4979394;28;20030;-88
2021/08/16 00:42:46;;;;;;;13.90;1.55;;;;;;;20.62;62.15;100969.91;4986268;28;20023;-87
2021/08/16 00:45:13;;;;;;;0.10;0.10;;;;;;;20.58;62.41;100975.56;4986278;28;20698;-88
2021/08/16 00:47:40;;;;;;;0.25;0.25;;;;;;;20.71;61.93;100981.97;4979016;28;20031;-89
2021/08/16 00:50:09;;;;;;;1.33;0.17;;;;;;;20.79;61.92;100976.13;4991149;28;20413;-86
2021/08/16 00:52:36;;;;;;;0.00;0.00;;;;;;;20.77;61.67;100973.53;4981859;28;20038;-87
2021/08/16 00:55:04;;;;;;;0.15;0.15;;;;;;;20.93;61.51;100981.50;4983877;28;20066;-87
2021/08/16 00:57:32;;;;;;;0.32;0.32;;;;;;;21.05;61.04;100973.63;4988711;28;20125;-88
2021/08/16 01:00:02;;;;;;;2.05;1.60;;;;;;;21.08;61.04;100973.44;4977659;28;20042;-87
2021/08/16 01:02:30;;;;;;;0.03;0.03;;;;;;;21.09;60.93;100975.19;4988249;28;20078;-88
2021/08/16 01:04:56;;;;;;;0.85;0.85;;;;;;;20.98;61.47;100974.00;4983911;28;20562;-87
2021/08/16 01:07:23;;;;;;;0.00;0.00;;;;;;;21.09;60.96;100976.03;4981342;28;20035;-87
2021/08/16 01:09:49;;;;;;;0.50;0.50;;;;;;;21.04;61.11;100980.00;4990408;28;20034;-88
2021/08/16 01:12:15;;;;;;;0.52;0.52;;;;;;;20.96;61.17;100981.34;4978661;28;20026;-87
2021/08/16 01:14:42;;;;;;;0.00;0.00;;;;;;;20.93;61.38;100981.50;4986877;28;20486;-87
2021/08/16 01:17:08;;;;;;;0.00;0.00;;;;;;;20.82;61.62;100973.22;4985800;28;20034;-87
2021/08/16 01:19:35;;;;;;;0.00;0.00;;;;;;;20.95;61.24;100981.44;4979656;28;20043;-89
2021/08/16 01:22:01;;;;;;;0.10;0.10;;;;;;;20.82;61.60;100979.50;4990593;28;20077;-87
2021/08/16 01:24:28;;;;;;;0.30;0.30;;;;;;;20.87;61.55;100976.50;4980136;28;20084;-87
2021/08/16 01:26:54;;;;;;;0.00;0.00;;;;;;;20.80;61.65;100985.94;4985002;28;20388;-87
2021/08/16 01:29:22;;;;;;;0.20;0.20;;;;;;;20.99;60.97;100969.50;4987471;28;20034;-87
2021/08/16 01:31:50;;;;;;;0.00;0.00;;;;;;;20.96;61.24;100965.16;4978286;28;20038;-87
2021/08/16 01:34:16;;;;;;;0.00;0.00;;;;;;;21.05;61.20;100969.13;4990139;28;20034;-87
2021/08/16 01:36:44;;;;;;;0.00;0.00;;;;;;;20.87;61.50;100972.94;4984451;28;20026;-88
2021/08/16 01:39:11;;;;;;;1.15;1.02;;;;;;;20.98;61.34;100963.22;4983437;28;20553;-89
2021/08/16 01:41:37;;;;;;;2.90;1.95;;;;;;;20.91;61.45;100956.50;4991068;28;20076;-92
2021/08/16 01:44:04;;;;;;;0.00;0.00;;;;;;;21.03;61.12;100959.41;4977977;28;20031;-92
2021/08/16 01:46:30;;;;;;;4.75;1.75;;;;;;;21.00;61.21;100952.38;4988683;28;20019;-91
2021/08/16 01:48:57;;;;;;;0.75;0.75;;;;;;;20.95;61.28;100952.66;4984088;28;20037;-92
2021/08/16 01:51:23;;;;;;;0.00;0.00;;;;;;;21.10;61.05;100952.69;4980836;28;20031;-92
2021/08/16 01:53:50;;;;;;;0.08;0.08;;;;;;;21.13;60.89;100960.56;4990721;28;20022;-92
2021/08/16 01:56:19;;;;;;;0.63;0.63;;;;;;;21.14;60.82;100948.81;4978651;28;20038;-93
2021/08/16 01:58:46;;;;;;;0.03;0.03;;;;;;;21.21;60.58;100952.88;4985853;28;20027;-92
2021/08/16 02:01:12;;;;;;;0.10;0.10;;;;;;;21.23;60.56;100950.06;4985865;28;20353;-91
2021/08/16 02:03:39;;;;;;;0.10;0.10;;;;;;;21.41;59.90;100950.72;4978831;28;20362;-90
2021/08/16 02:06:05;;;;;;;0.10;0.10;;;;;;;21.44;59.67;100958.63;4990045;28;20481;-91
2021/08/16 02:08:41;;;;;;;0.20;0.20;;;;;;;21.42;60.07;100955.13;4984664;28;20157;-86
2021/08/16 02:11:17;;;;;;;0.00;0.00;;;;;;;21.31;60.27;100956.69;4986432;28;20030;-86
2021/08/16 02:13:53;;;;;;;0.08;0.08;;;;;;;21.33;60.18;100956.59;4994331;28;20030;-86
2021/08/16 02:16:19;;;;;;;0.10;0.10;;;;;;;21.43;60.02;100954.19;4982730;28;20034;-91
2021/08/16 02:18:46;;;;;;;0.10;0.10;;;;;;;21.29;60.31;100947.84;4989152;28;20026;-92
2021/08/16 02:21:12;;;;;;;0.08;0.08;;;;;;;21.38;60.20;100959.84;4988959;28;20026;-91
2021/08/16 02:23:39;;;;;;;0.63;0.63;;;;;;;21.43;59.90;100963.16;4981803;28;20062;-90
2021/08/16 02:26:05;;;;;;;0.10;0.10;;;;;;;21.47;59.91;100955.69;4991096;28;20089;-90
2021/08/16 02:28:33;;;;;;;0.15;0.15;;;;;;;21.46;59.99;100959.38;4990388;28;20019;-91
2021/08/16 02:31:00;;;;;;;0.63;0.63;;;;;;;21.52;59.86;100955.41;4987006;28;20034;-90
2021/08/16 02:33:26;;;;;;;0.05;0.05;;;;;;;21.54;59.70;100954.34;4983300;28;20066;-91
2021/08/16 02:35:53;;;;;;;0.60;0.60;;;;;;;21.45;60.24;100961.19;4993403;28;20034;-93
2021/08/16 02:38:19;;;;;;;0.10;0.10;;;;;;;21.15;60.99;100958.63;4981731;28;20031;-91
2021/08/16 02:40:45;;;;;;;0.00;0.00;;;;;;;21.45;60.38;100961.19;4988592;28;20162;-91
2021/08/16 02:43:12;;;;;;;0.05;0.05;;;;;;;21.26;60.96;100950.75;4988698;28;20061;-91
2021/08/16 02:45:38;;;;;;;0.05;0.05;;;;;;;21.31;60.67;100962.09;4981841;28;20034;-92
2021/08/16 02:48:05;;;;;;;3.92;2.80;;;;;;;21.49;60.27;100951.94;4993067;28;20069;-91
2021/08/16 02:50:31;;;;;;;0.93;0.50;;;;;;;21.33;60.58;100954.78;4982934;28;20030;-90
2021/08/16 02:52:58;;;;;;;0.10;0.10;;;;;;;21.52;60.06;100950.03;4987077;28;20030;-91
2021/08/16 02:55:25;;;;;;;0.00;0.00;;;;;;;21.35;60.62;100954.69;4990169;28;20125;-91
2021/08/16 02:57:51;;;;;;;0.10;0.10;;;;;;;21.45;60.48;100954.97;4980311;28;20031;-90
2021/08/16 03:00:17;;;;;;;0.10;0.10;;;;;;;21.26;61.13;100956.13;4992237;28;20121;-92
2021/08/16 03:02:44;;;;;;;0.40;0.40;;;;;;;21.33;61.05;100957.47;4984704;28;20434;-91
2021/08/16 03:05:12;;;;;;;0.10;0.10;;;;;;;21.39;60.72;100952.66;4984800;28;20031;-91
2021/08/16 03:07:38;;;;;;;0.10;0.10;;;;;;;21.33;61.16;100957.47;4991828;28;20154;-90
2021/08/16 03:10:07;;;;;;;0.00;0.00;;;;;;;21.57;60.36;100958.72;4979839;28;20034;-91
2021/08/16 03:12:34;;;;;;;0.10;0.10;;;;;;;21.22;61.83;100957.28;4989705;28;20058;-90
2021/08/16 03:15:00;;;;;;;0.10;0.10;;;;;;;21.44;61.01;100953.22;4986538;28;20064;-92
2021/08/16 03:17:26;;;;;;;0.20;0.20;;;;;;;21.37;61.03;100951.88;4982481;28;20030;-91
2021/08/16 03:19:53;;;;;;;0.00;0.00;;;;;;;21.25;61.29;100949.00;4992608;28;20042;-92
2021/08/16 03:22:19;;;;;;;3.30;1.20;;;;;;;21.40;60.85;100949.00;4980698;28;20033;-90
2021/08/16 03:24:46;;;;;;;0.10;0.10;;;;;;;21.34;61.00;100958.34;4994297;28;20081;-90
2021/08/16 03:27:12;;;;;;;0.30;0.30;;;;;;;21.28;61.01;100939.84;4990880;28;20405;-90
2021/08/16 03:29:38;;;;;;;0.00;0.00;;;;;;;21.14;61.19;100949.66;4980826;28;20486;-92
2021/08/16 03:32:05;;;;;;;0.28;0.28;;;;;;;21.16;61.21;100945.06;4980535;28;20030;-88
2021/08/16 03:34:31;;;;;;;0.25;0.25;;;;;;;21.07;61.61;100944.78;4985644;28;20036;-90
2021/08/16 03:36:58;;;;;;;0.05;0.05;;;;;;;21.03;61.76;100943.25;4985321;28;20031;-92
2021/08/16 03:39:24;;;;;;;0.10;0.10;;;;;;;21.16;61.22;100944.22;4985900;28;20038;-89
2021/08/16 03:41:50;;;;;;;0.00;0.00;;;;;;;21.19;61.05;100938.63;4985263;28;20022;-92
2021/08/16 03:44:16;;;;;;;0.10;0.10;;;;;;;21.19;61.04;100941.31;4984560;28;20114;-88
2021/08/16 03:46:42;;;;;;;0.00;0.00;;;;;;;21.09;61.30;100937.47;4975948;28;20410;-87
2021/08/16 03:49:11;;;;;;;0.10;0.10;;;;;;;21.21;61.04;100936.69;4986408;28;20032;-87
2021/08/16 03:51:37;;;;;;;0.00;0.00;;;;;;;21.20;61.18;100934.97;4980385;28;20118;-87
2021/08/16 03:54:04;;;;;;;0.10;0.10;;;;;;;21.11;61.06;100936.41;4991901;28;20030;-87
2021/08/16 03:56:30;;;;;;;2.17;1.75;;;;;;;20.97;61.78;100936.41;4981758;28;20065;-87
2021/08/16 03:58:56;;;;;;;0.10;0.10;;;;;;;21.23;61.29;100925.81;4985610;28;20035;-87
2021/08/16 04:01:22;;;;;;;0.25;0.25;;;;;;;21.27;60.89;100921.94;4980357;28;20035;-88
2021/08/16 04:03:49;;;;;;;0.10;0.10;;;;;;;21.19;61.11;100925.13;4991779;28;20481;-87
2021/08/16 04:06:15;;;;;;;0.88;0.85;;;;;;;21.17;61.14;100925.25;4980047;28;20035;-87
2021/08/16 04:08:43;;;;;;;0.00;0.00;;;;;;;21.22;60.93;100921.38;4983859;28;20438;-88
2021/08/16 04:11:11;;;;;;;0.32;0.32;;;;;;;21.01;61.56;100913.72;4984136;28;20027;-86
2021/08/16 04:13:37;;;;;;;0.10;0.10;;;;;;;21.03;61.66;100921.69;4983958;28;20050;-86
2021/08/16 04:16:04;;;;;;;0.00;0.00;;;;;;;21.13;61.39;100917.44;4986951;28;20537;-86
2021/08/16 04:18:31;;;;;;;0.00;0.00;;;;;;;21.32;60.63;100923.41;4985693;28;20027;-86
2021/08/16 04:20:57;;;;;;;0.10;0.10;;;;;;;21.05;61.28;100920.63;4984017;28;20030;-86
2021/08/16 04:23:28;;;;;;;0.10;0.10;;;;;;;21.11;60.75;100914.84;4985011;28;20054;-87
2021/08/16 04:26:09;;;;;;;0.10;0.10;;;;;;;21.18;60.77;100920.72;4982933;28;20073;-87
2021/08/16 04:28:36;;;;;;;1.53;0.60;;;;;;;21.22;60.59;100916.88;4984983;28;20109;-87
2021/08/16 04:31:02;;;;;;;0.00;0.00;;;;;;;21.24;60.65;100925.72;4984278;28;20765;-85
2021/08/16 04:33:28;;;;;;;0.85;0.85;;;;;;;21.28;60.48;100916.50;4982573;28;20473;-87
2021/08/16 04:35:54;;;;;;;0.43;0.43;;;;;;;21.19;60.69;100926.97;4984199;28;20507;-85
2021/08/16 04:38:24;;;;;;;0.15;0.15;;;;;;;21.25;60.57;100926.59;4983735;28;20385;-87
2021/08/16 04:40:51;;;;;;;0.05;0.05;;;;;;;21.14;61.21;100921.88;4982210;28;20037;-86
2021/08/16 04:43:19;;;;;;;0.20;0.20;;;;;;;21.07;61.40;100923.22;4983691;28;20469;-86
2021/08/16 04:45:45;;;;;;;0.10;0.10;;;;;;;21.18;61.20;100920.72;4984436;28;20155;-86
2021/08/16 04:48:11;;;;;;;0.17;0.17;;;;;;;21.10;62.08;100929.28;4983012;28;20538;-86
2021/08/16 04:50:40;;;;;;;0.00;0.00;;;;;;;21.05;62.90;100927.81;4984017;28;20418;-88
2021/08/16 04:53:07;;;;;;;0.00;0.00;;;;;;;20.80;64.24;100921.31;4988263;28;20544;-86
2021/08/16 04:55:33;;;;;;;0.10;0.10;;;;;;;20.61;65.32;100927.78;4982497;28;20027;-82
2021/08/16 04:57:59;;;;;;;0.30;0.30;;;;;;;20.42;66.49;100932.53;4984502;28;20037;-84
2021/08/16 05:00:29;;;;;;;0.08;0.08;;;;;;;20.40;66.47;100934.44;4982766;28;20041;-85
2021/08/16 05:02:56;;;;;;;0.38;0.38;;;;;;;20.17;68.14;100929.47;4979945;28;20414;-84
2021/08/16 05:05:26;;;;;;;0.00;0.00;;;;;;;20.26;67.53;100921.81;4984387;28;20481;-84
2021/08/16 05:07:54;;;;;;;0.10;0.10;;;;;;;20.25;67.46;100945.19;4981041;28;20385;-84
2021/08/16 05:10:25;;;;;;;0.10;0.10;;;;;;;20.20;68.12;100955.34;4981226;28;20065;-90
2021/08/16 05:13:00;;;;;;;0.65;0.65;;;;;;;19.72;68.76;100966.97;4989470;28;20031;-86
2021/08/16 05:15:26;;;;;;;0.10;0.10;;;;;;;19.49;69.53;100948.59;4975322;28;20034;-86
2021/08/16 05:17:53;;;;;;;0.00;0.00;;;;;;;19.44;69.01;100950.66;4974920;28;20031;-86
2021/08/16 05:20:20;;;;;;;0.00;0.00;;;;;;;19.43;69.28;100941.75;4974233;28;20125;-86
2021/08/16 05:22:48;;;;;;;0.00;0.00;;;;;;;19.46;69.67;100943.41;4974859;28;20385;-86
2021/08/16 05:25:16;;;;;;;0.10;0.10;;;;;;;19.39;70.02;100942.88;4974669;28;20034;-86
2021/08/16 05:27:42;;;;;;;0.00;0.00;;;;;;;19.21;70.74;100955.50;4974993;28;20077;-86
2021/08/16 05:30:09;;;;;;;0.10;0.10;;;;;;;19.33;70.87;100946.75;4974798;28;20115;-86
2021/08/16 05:32:37;;;;;;;0.00;0.00;;;;;;;19.31;70.84;100956.72;4974818;28;20425;-86
2021/08/16 05:35:05;;;;;;;0.10;0.10;;;;;;;19.30;71.32;100938.00;4974972;28;20038;-86
2021/08/16 05:37:31;;;;;;;0.05;0.05;;;;;;;19.24;71.23;100952.66;4974702;28;20035;-87
2021/08/16 05:39:57;;;;;;;0.10;0.10;;;;;;;19.05;72.34;100956.34;4974390;28;20486;-86
2021/08/16 05:42:23;;;;;;;0.10;0.10;;;;;;;19.46;70.81;100964.91;4976546;28;20027;-85
2021/08/16 05:44:49;;;;;;;0.10;0.10;;;;;;;19.21;71.29;100961.72;4978273;28;20482;-87
2021/08/16 05:47:15;;;;;;;0.17;0.17;;;;;;;19.27;71.11;100965.91;4978130;28;20031;-86
2021/08/16 05:49:41;;;;;;;0.10;0.10;;;;;;;19.31;71.04;100964.78;4978524;28;20086;-85
2021/08/16 05:52:08;;;;;;;0.10;0.10;;;;;;;19.13;71.56;100973.84;4978464;28;20128;-86
2021/08/16 05:54:34;;;;;;;0.00;0.00;;;;;;;19.28;70.83;100966.75;4978343;28;20027;-86
2021/08/16 05:57:00;;;;;;;0.00;0.00;;;;;;;19.31;70.57;100978.22;4978239;28;20037;-86
2021/08/16 05:59:26;;;;;;;0.10;0.10;;;;;;;19.46;70.33;100976.50;4977881;28;20030;-86
2021/08/16 06:01:52;;;;;;;0.10;0.10;;;;;;;19.35;70.07;100979.81;4978504;28;20058;-86
2021/08/16 06:04:19;;;;;;;0.00;0.00;;;;;;;19.24;70.18;100991.13;4978219;28;20031;-86
2021/08/16 06:06:45;;;;;;;0.20;0.20;;;;;;;19.25;70.30;100983.91;4978153;28;20046;-86
2021/08/16 06:09:11;;;;;;;0.68;0.50;;;;;;;19.29;70.06;100985.50;4978058;28;20076;-86
2021/08/16 06:11:37;;;;;;;0.20;0.20;;;;;;;19.27;70.20;100990.09;4977774;28;20058;-86
2021/08/16 06:14:03;;;;;;;0.05;0.05;;;;;;;19.27;70.01;100990.09;4977990;28;20367;-86
2021/08/16 06:16:30;;;;;;;3.25;2.15;;;;;;;19.26;70.01;100991.03;4977621;28;20039;-86
2021/08/16 06:18:56;;;;;;;0.10;0.10;;;;;;;19.06;70.69;100989.41;4977927;28;20497;-86
2021/08/16 06:21:23;;;;;;;0.10;0.10;;;;;;;19.15;69.98;100996.13;4977630;28;20040;-86
2021/08/16 06:23:49;;;;;;;0.10;0.10;;;;;;;19.16;69.70;100995.16;4977653;28;20351;-85
2021/08/16 06:26:15;;;;;;;0.10;0.10;;;;;;;19.16;69.88;100997.84;4977540;28;20035;-85
2021/08/16 06:28:41;;;;;;;0.00;0.00;;;;;;;19.23;69.86;101002.81;4977628;28;20035;-86
2021/08/16 06:31:08;;;;;;;0.08;0.08;;;;;;;19.11;70.18;101000.78;4977569;28;20038;-85
2021/08/16 06:33:39;;;;;;;0.10;0.10;;;;;;;19.15;70.15;101006.84;4977372;28;20035;-85
2021/08/16 06:36:06;;;;;;;0.10;0.10;;;;;;;19.15;70.14;101009.53;4977638;28;20034;-85
2021/08/16 06:38:32;;;;;;;0.10;0.10;;;;;;;19.11;70.10;101013.34;4977312;28;20478;-85
2021/08/16 06:41:00;;;;;;;0.10;0.10;;;;;;;19.04;70.23;101013.69;4976916;28;20030;-85
2021/08/16 06:43:27;;;;;;;0.38;0.38;;;;;;;19.13;70.09;101014.13;4977462;28;20481;-85
2021/08/16 06:45:54;;;;;;;0.08;0.08;;;;;;;19.15;69.97;101022.97;4977248;28;20110;-84
2021/08/16 06:48:20;;;;;;;0.10;0.10;;;;;;;19.13;70.04;101028.44;4977086;28;20054;-84
2021/08/16 06:50:47;;;;;;;0.00;0.00;;;;;;;19.04;69.95;101034.28;4977189;28;20031;-84
2021/08/16 06:53:14;;;;;;;1.13;1.13;;;;;;;18.99;69.91;101047.97;4976897;28;20054;-85
2021/08/16 06:55:41;;;;;;;0.03;0.03;;;;;;;19.01;70.46;101050.56;4977137;28;20027;-85
2021/08/16 06:58:08;;;;;;;0.68;0.20;;;;;;;18.72;71.00;101061.81;4977259;28;20027;-85
2021/08/16 07:00:34;;;;;;;0.10;0.10;;;;;;;18.46;71.03;101057.75;4976786;28;20031;-85
2021/08/16 07:03:00;;;;;;;0.03;0.03;;;;;;;18.42;70.54;101064.22;4977013;28;20560;-85
2021/08/16 07:05:27;;;;;;;0.00;0.00;;;;;;;18.43;70.61;101079.38;4976752;28;20501;-84
2021/08/16 07:07:53;;;;;;;0.10;0.10;;;;;;;18.45;70.72;101071.25;4976695;28;20027;-85
2021/08/16 07:10:20;;;;;;;0.05;0.05;;;;;;;18.47;70.79;101072.91;4976554;28;20535;-85
2021/08/16 07:12:47;;;;;;;0.60;0.60;;;;;;;18.37;70.72;101075.19;4976888;28;20035;-84
2021/08/16 07:15:13;;;;;;;0.10;0.10;;;;;;;18.32;70.97;101079.91;4976576;28;20430;-85
2021/08/16 07:17:39;;;;;;;0.10;0.10;;;;;;;18.31;70.97;101080.84;4976568;28;20386;-84
2021/08/16 07:20:09;;;;;;;0.20;0.20;;;;;;;18.22;70.88;101075.94;4976567;28;20073;-84
2021/08/16 07:22:35;;;;;;;1.13;1.10;;;;;;;18.11;70.66;101077.31;4976784;28;20058;-85
2021/08/16 07:25:02;;;;;;;0.05;0.05;;;;;;;18.06;70.67;101073.97;4976327;28;20119;-87
2021/08/16 07:27:28;;;;;;;0.00;0.00;;;;;;;18.31;70.24;101071.94;4976734;28;20059;-87
2021/08/16 07:29:54;;;;;;;0.10;0.10;;;;;;;18.31;70.14;101072.81;4976578;28;20026;-87
2021/08/16 07:32:20;;;;;;;0.00;0.00;;;;;;;18.42;69.95;101081.19;4976965;28;20050;-86
2021/08/16 07:34:46;;;;;;;0.17;0.10;;;;;;;18.56;69.79;101079.63;4976491;28;20035;-84
2021/08/16 07:37:14;;;;;;;0.10;0.10;;;;;;;18.63;69.38;101083.75;4976437;28;20114;-87
2021/08/16 07:39:40;;;;;;;0.43;0.43;;;;;;;18.69;69.34;101088.81;4976201;28;20034;-87
2021/08/16 07:42:06;;;;;;;0.00;0.00;;;;;;;18.72;68.94;101094.03;4975867;28;20118;-83
2021/08/16 07:44:33;;;;;;;0.10;0.10;;;;;;;18.78;68.75;101089.28;4976431;28;20060;-87
2021/08/16 07:47:00;;;;;;;0.00;0.00;;;;;;;18.84;68.57;101095.22;4976145;28;20031;-87
2021/08/16 07:49:30;;;;;;;0.10;0.10;;;;;;;18.72;68.80;101102.06;4976252;28;20031;-86
2021/08/16 07:51:57;;;;;;;0.00;0.00;;;;;;;18.73;67.97;101098.44;4976155;28;20464;-87
2021/08/16 07:54:23;;;;;;;0.00;0.00;;;;;;;18.88;68.29;101101.31;4976364;28;20041;-88
2021/08/16 07:56:50;;;;;;;0.00;0.00;;;;;;;19.03;68.34;101113.13;4975988;28;20065;-87
2021/08/16 07:59:17;;;;;;;0.03;0.03;;;;;;;19.17;67.95;101104.34;4976399;28;20077;-87
2021/08/16 08:01:44;;;;;;;0.10;0.10;;;;;;;19.23;67.11;101104.88;4976073;28;20109;-87
2021/08/16 08:04:10;;;;;;;0.10;0.10;;;;;;;19.28;65.92;101106.44;4975364;28;20031;-84
2021/08/16 08:06:36;;;;;;;0.10;0.10;;;;;;;19.11;65.67;101101.97;4975645;28;20026;-87
2021/08/16 08:09:03;;;;;;;13.25;4.03;;;;;;;19.31;65.33;101106.31;4976334;28;20030;-87
2021/08/16 08:11:29;;;;;;;0.20;0.20;;;;;;;19.49;65.18;101115.19;4975746;28;20398;-87
2021/08/16 08:13:55;;;;;;;1.85;1.55;;;;;;;19.32;63.08;101113.41;4976179;28;20132;-88
2021/08/16 08:16:21;;;;;;;0.03;0.03;;;;;;;19.35;64.29;101124.88;4975621;28;20418;-88
2021/08/16 08:18:47;;;;;;;0.00;0.00;;;;;;;19.27;62.19;101127.09;4975496;28;20038;-87
2021/08/16 08:21:14;;;;;;;0.90;0.90;;;;;;;19.04;61.80;101134.53;4975467;28;20371;-88
2021/08/16 08:23:40;;;;;;;0.88;0.88;;;;;;;18.98;60.34;101126.78;4975565;28;20377;-88
2021/08/16 08:26:06;;;;;;;0.10;0.10;;;;;;;18.91;61.08;101136.09;4975621;28;20560;-88
2021/08/16 08:28:32;;;;;;;1.02;0.95;;;;;;;18.96;61.18;101139.41;4975673;28;20117;-88
2021/08/16 08:30:59;;;;;;;0.35;0.35;;;;;;;18.94;61.28;101145.78;4975766;28;20076;-87
2021/08/16 08:33:25;;;;;;;0.13;0.13;;;;;;;19.04;61.22;101137.19;4975702;28;20035;-88
2021/08/16 08:35:52;;;;;;;0.10;0.10;;;;;;;19.04;61.34;101147.94;4975514;28;20035;-88
2021/08/16 08:38:19;;;;;;;1.02;0.90;;;;;;;19.22;61.69;101146.13;4975855;28;20027;-88
2021/08/16 08:40:46;;;;;;;0.10;0.10;;;;;;;19.16;61.43;101148.25;4979182;28;20062;-87
2021/08/16 08:43:14;;;;;;;0.13;0.13;;;;;;;19.08;60.81;101154.03;4980194;28;20034;-88
2021/08/16 08:45:42;;;;;;;0.10;0.10;;;;;;;19.10;60.37;101156.63;4976657;28;20027;-88
2021/08/16 08:48:09;;;;;;;0.25;0.25;;;;;;;19.42;60.50;101156.81;4975812;28;20038;-87
2021/08/16 08:50:37;;;;;;;0.43;0.43;;;;;;;19.45;59.36;101167.38;4976335;28;20026;-87
2021/08/16 08:53:04;;;;;;;0.20;0.20;;;;;;;19.43;59.20;101147.75;4976320;28;20042;-87
2021/08/16 08:55:30;;;;;;;0.10;0.10;;;;;;;19.43;59.37;101163.88;4975934;28;20166;-88
2021/08/16 08:58:01;;;;;;;0.15;0.15;;;;;;;19.44;59.08;101171.88;4975838;28;20113;-87
2021/08/16 09:00:27;;;;;;;0.20;0.20;;;;;;;19.45;58.65;101167.38;4975222;28;20147;-88
2021/08/16 09:02:57;;;;;;;0.05;0.05;;;;;;;19.26;58.13;101173.69;4975374;28;20031;-87
2021/08/16 09:05:24;;;;;;;0.10;0.10;;;;;;;19.16;58.56;101185.88;4976333;28;20396;-86
2021/08/16 09:07:50;;;;;;;0.80;0.75;;;;;;;19.02;59.58;101192.78;4975344;28;20035;-85
2021/08/16 09:10:17;;;;;;;0.30;0.30;;;;;;;18.73;60.78;101197.75;4975151;28;20114;-85
2021/08/16 09:12:44;;;;;;;0.10;0.10;;;;;;;18.57;62.44;101191.41;4975875;28;20085;-87
2021/08/16 09:18:04;;;;;;;0.10;0.10;;;;;;;18.53;63.13;101192.47;5111615;27;20384;-86
2021/08/16 09:20:35;;;;;;;3.25;0.98;;;;;;;18.38;63.55;101191.38;5110817;28;20059;-86
2021/08/16 09:23:06;;;;;;;0.30;0.30;;;;;;;18.50;63.01;101198.00;5111924;28;20032;-85
2021/08/16 09:25:38;;;;;;;0.47;0.47;;;;;;;18.33;63.72;101205.03;5111960;28;20036;-86
2021/08/16 09:28:06;;;;;;;0.60;0.60;;;;;;;18.35;63.15;101204.97;5111234;28;20024;-87
2021/08/16 09:33:15;;;;;;;1.10;1.00;;;;;;;18.15;63.82;101235.38;5090825;27;20451;-84
2021/08/16 09:38:44;;;;;;;0.85;0.85;;;;;;;18.51;63.08;101213.16;5070058;28;20784;-87
2021/08/16 09:41:27;;;;;;;0.20;0.20;;;;;;;18.59;62.85;101203.81;5043677;28;20026;-83
2021/08/16 09:44:11;;;;;;;0.20;0.20;;;;;;;18.91;62.70;101211.25;5032162;28;20033;-84
2021/08/16 09:46:39;;;;;;;0.10;0.10;;;;;;;19.21;62.56;101214.22;5031333;28;20048;-86
2021/08/16 09:49:06;;;;;;;0.10;0.10;;;;;;;19.47;61.71;101219.22;5031761;28;20033;-84
2021/08/16 09:51:35;;;;;;;0.30;0.30;;;;;;;19.63;61.13;101219.31;5031617;28;20034;-83
2021/08/16 09:54:02;;;;;;;0.08;0.08;;;;;;;19.69;59.97;101214.47;5031571;28;20025;-84
2021/08/16 09:56:29;;;;;;;1.00;1.00;;;;;;;20.04;59.09;101213.59;5030805;28;20488;-85
2021/08/16 09:58:56;;;;;;;0.13;0.13;;;;;;;19.93;57.14;101210.59;5031355;28;20028;-86
2021/08/16 10:01:22;;;;;;;0.20;0.20;;;;;;;20.38;56.10;101213.56;5030562;28;20072;-84
2021/08/16 10:03:49;;;;;;;0.15;0.15;;;;;;;20.25;54.62;101249.22;5031314;28;20026;-84
2021/08/16 10:06:17;;;;;;;0.82;0.82;;;;;;;20.44;54.64;101227.53;5030797;28;20395;-84
2021/08/16 10:08:50;;;;;;;0.38;0.38;;;;;;;20.27;54.25;101232.97;5030961;28;20022;-84
2021/08/16 10:11:18;;;;;;;0.00;0.00;;;;;;;20.28;54.98;101232.88;5030676;28;20037;-84
2021/08/16 10:13:51;;;;;;;0.13;0.13;;;;;;;20.21;55.17;101236.84;5030635;28;20029;-87
2021/08/16 10:16:22;;;;;;;0.10;0.10;;;;;;;20.33;55.42;101246.94;5030642;28;20416;-86
2021/08/16 10:18:53;;;;;;;0.03;0.03;;;;;;;20.30;55.76;101244.44;5030490;28;20044;-87
2021/08/16 10:21:23;;;;;;;0.00;0.00;;;;;;;20.42;55.78;101242.03;5030566;28;20037;-86
2021/08/16 10:23:52;;;;;;;0.28;0.28;;;;;;;20.56;56.21;101262.78;5030644;28;20076;-86
2021/08/16 10:26:36;;;;;;;0.03;0.03;;;;;;;20.55;54.47;101283.47;5030412;28;20037;-86
2021/08/16 10:29:05;;;;;;;0.52;0.52;;;;;;;20.88;55.74;101261.00;5029951;28;20495;-87
2021/08/16 10:31:34;;;;;;;0.40;0.40;;;;;;;21.20;54.99;101266.38;5070213;22;20372;-89
2021/08/16 10:34:01;;;;;;;0.47;0.47;;;;;;;21.09;53.29;101268.84;5089538;28;20024;-89
2021/08/16 10:36:28;;;;;;;0.50;0.50;;;;;;;21.21;51.49;101270.81;5089069;28;20028;-88
2021/08/16 10:39:00;;;;;;;0.20;0.20;;;;;;;21.24;51.61;101285.94;5089372;28;20518;-88
2021/08/16 10:41:39;;;;;;;1.08;0.98;;;;;;;21.12;52.19;101283.00;5088626;28;20028;-81
2021/08/16 10:44:15;;;;;;;0.30;0.30;;;;;;;20.61;52.81;101291.22;5089540;28;20028;-85
2021/08/16 10:46:46;;;;;;;0.38;0.38;;;;;;;20.26;53.43;101310.16;5089334;28;20039;-85
2021/08/16 10:49:13;;;;;;;0.10;0.10;;;;;;;20.24;54.14;101306.66;5079014;28;20031;-85
2021/08/16 10:54:27;;;;;;;1.15;1.15;;;;;;;19.73;54.50;101312.81;5071375;27;20414;-94
2021/08/16 10:56:55;;;;;;;0.10;0.10;;;;;;;19.80;55.09;101308.03;5070661;28;20036;-91
2021/08/16 10:59:25;;;;;;;0.68;0.68;;;;;;;19.36;54.83;101336.16;5060778;28;20364;-93
2021/08/16 11:01:57;;;;;;;0.15;0.15;;;;;;;18.89;57.70;101323.19;5057750;28;20120;-92
2021/08/16 11:04:31;;;;;;;0.10;0.10;;;;;;;19.16;57.33;101314.78;5058624;28;20059;-91
2021/08/16 11:07:03;;;;;;;0.30;0.30;;;;;;;19.15;57.69;101313.03;5057892;28;20471;-91
2021/08/16 11:09:32;;;;;;;0.30;0.30;;;;;;;19.13;58.06;101326.56;5058111;28;20208;-92
2021/08/16 11:12:09;;;;;;;1.35;1.08;;;;;;;19.27;57.50;101314.28;5058258;28;20082;-91
2021/08/16 11:14:49;;;;;;;0.10;0.10;;;;;;;19.53;58.37;101319.22;5059848;28;20044;-91
2021/08/16 11:17:27;;;;;;;0.10;0.10;;;;;;;19.65;56.40;101322.22;5060620;28;20025;-92
2021/08/16 11:19:57;;;;;;;0.30;0.30;;;;;;;19.77;56.21;101323.44;5060134;28;20025;-91
2021/08/16 11:22:24;;;;;;;0.30;0.30;;;;;;;19.68;56.26;101327.47;5048946;28;20141;-91
2021/08/16 11:24:50;;;;;;;0.20;0.20;;;;;;;19.77;56.34;101326.97;5058378;28;20458;-92
2021/08/16 11:27:20;;;;;;;0.20;0.20;;;;;;;19.91;56.61;101330.81;5060719;28;20067;-92
2021/08/16 11:29:57;;;;;;;0.00;0.00;;;;;;;19.72;56.15;101335.28;5058717;28;20053;-92
2021/08/16 11:32:25;;;;;;;0.85;0.85;;;;;;;19.72;56.61;101340.66;5056585;28;20103;-92
2021/08/16 11:34:55;;;;;;;1.75;1.65;;;;;;;19.92;56.68;101332.56;5054691;28;20059;-92
2021/08/16 11:37:23;;;;;;;0.10;0.10;;;;;;;19.99;56.81;101334.84;5056493;28;20041;-86